sensor_id;sensor_type;location;lat;lon;timestamp;P1;durP1;ratioP1;P2;durP2;ratioP2
62584;SDS011;48643;51.670;5.808;2023-10-31T00:01:06;6.07;;;3.35;;
62584;SDS011;48643;51.670;5.808;2023-10-31T00:03:33;7.22;;;3.15;;
62584;SDS011;48643;51.670;5.808;2023-10-31T00:06:00;9.55;;;3.58;;
62584;SDS011;48643;51.670;5.808;2023-10-31T00:08:27;7.35;;;3.10;;
62584;SDS011;48643;51.670;5.808;2023-10-31T00:10:54;7.75;;;2.80;;
62584;SDS011;48643;51.670;5.808;2023-10-31T00:13:21;6.03;;;3.00;;
62584;SDS011;48643;51.670;5.808;2023-10-31T00:15:48;6.63;;;3.25;;
62584;SDS011;48643;51.670;5.808;2023-10-31T00:18:15;7.93;;;3.53;;
62584;SDS011;48643;51.670;5.808;2023-10-31T00:20:42;8.10;;;4.00;;
62584;SDS011;48643;51.670;5.808;2023-10-31T00:23:09;9.30;;;4.22;;
62584;SDS011;48643;51.670;5.808;2023-10-31T00:25:36;9.02;;;4.65;;
62584;SDS011;48643;51.670;5.808;2023-10-31T00:28:03;8.98;;;4.78;;
62584;SDS011;48643;51.670;5.808;2023-10-31T00:30:30;10.68;;;5.80;;
62584;SDS011;48643;51.670;5.808;2023-10-31T00:32:57;7.25;;;5.47;;
62584;SDS011;48643;51.670;5.808;2023-10-31T00:35:24;8.40;;;5.63;;
62584;SDS011;48643;51.670;5.808;2023-10-31T00:37:51;8.43;;;5.07;;
62584;SDS011;48643;51.670;5.808;2023-10-31T00:40:18;9.13;;;5.22;;
62584;SDS011;48643;51.670;5.808;2023-10-31T00:42:45;11.27;;;5.72;;
62584;SDS011;48643;51.670;5.808;2023-10-31T00:45:13;10.98;;;5.35;;
62584;SDS011;48643;51.670;5.808;2023-10-31T00:47:40;10.40;;;5.70;;
62584;SDS011;48643;51.670;5.808;2023-10-31T00:50:07;12.25;;;6.22;;
62584;SDS011;48643;51.670;5.808;2023-10-31T00:52:35;12.70;;;7.18;;
62584;SDS011;48643;51.670;5.808;2023-10-31T00:55:03;13.40;;;7.32;;
62584;SDS011;48643;51.670;5.808;2023-10-31T00:57:30;17.55;;;9.48;;
62584;SDS011;48643;51.670;5.808;2023-10-31T00:59:57;18.35;;;10.15;;
62584;SDS011;48643;51.670;5.808;2023-10-31T01:02:24;17.48;;;10.82;;
62584;SDS011;48643;51.670;5.808;2023-10-31T01:04:51;17.52;;;10.77;;
62584;SDS011;48643;51.670;5.808;2023-10-31T01:07:18;20.90;;;11.40;;
62584;SDS011;48643;51.670;5.808;2023-10-31T01:09:45;20.02;;;12.23;;
62584;SDS011;48643;51.670;5.808;2023-10-31T01:12:12;21.77;;;12.20;;
62584;SDS011;48643;51.670;5.808;2023-10-31T01:14:39;22.25;;;12.48;;
62584;SDS011;48643;51.670;5.808;2023-10-31T01:17:06;22.02;;;12.90;;
62584;SDS011;48643;51.670;5.808;2023-10-31T01:19:33;22.02;;;12.90;;
62584;SDS011;48643;51.670;5.808;2023-10-31T01:22:01;27.25;;;13.55;;
62584;SDS011;48643;51.670;5.808;2023-10-31T01:24:28;19.13;;;12.82;;
62584;SDS011;48643;51.670;5.808;2023-10-31T01:26:55;26.85;;;12.98;;
62584;SDS011;48643;51.670;5.808;2023-10-31T01:29:22;22.48;;;13.30;;
62584;SDS011;48643;51.670;5.808;2023-10-31T01:31:49;20.05;;;11.95;;
62584;SDS011;48643;51.670;5.808;2023-10-31T01:34:27;18.23;;;11.40;;
62584;SDS011;48643;51.670;5.808;2023-10-31T01:36:54;15.63;;;10.57;;
62584;SDS011;48643;51.670;5.808;2023-10-31T01:39:21;16.45;;;9.77;;
62584;SDS011;48643;51.670;5.808;2023-10-31T01:41:48;14.63;;;8.68;;
62584;SDS011;48643;51.670;5.808;2023-10-31T01:44:15;16.60;;;10.20;;
62584;SDS011;48643;51.670;5.808;2023-10-31T01:46:42;15.52;;;7.43;;
62584;SDS011;48643;51.670;5.808;2023-10-31T01:49:09;15.80;;;6.88;;
62584;SDS011;48643;51.670;5.808;2023-10-31T01:51:36;15.13;;;6.50;;
62584;SDS011;48643;51.670;5.808;2023-10-31T01:54:03;14.90;;;6.32;;
62584;SDS011;48643;51.670;5.808;2023-10-31T01:56:30;12.98;;;5.90;;
62584;SDS011;48643;51.670;5.808;2023-10-31T01:58:57;13.77;;;6.55;;
62584;SDS011;48643;51.670;5.808;2023-10-31T02:01:25;18.70;;;7.65;;
62584;SDS011;48643;51.670;5.808;2023-10-31T02:03:52;15.85;;;8.38;;
62584;SDS011;48643;51.670;5.808;2023-10-31T02:06:19;20.98;;;9.05;;
62584;SDS011;48643;51.670;5.808;2023-10-31T02:08:48;18.10;;;8.85;;
62584;SDS011;48643;51.670;5.808;2023-10-31T02:11:15;19.80;;;9.70;;
62584;SDS011;48643;51.670;5.808;2023-10-31T02:13:42;23.85;;;9.98;;
62584;SDS011;48643;51.670;5.808;2023-10-31T02:16:09;20.63;;;10.82;;
62584;SDS011;48643;51.670;5.808;2023-10-31T02:18:36;22.88;;;11.25;;
62584;SDS011;48643;51.670;5.808;2023-10-31T02:21:03;24.67;;;12.25;;
62584;SDS011;48643;51.670;5.808;2023-10-31T02:23:30;28.13;;;12.57;;
62584;SDS011;48643;51.670;5.808;2023-10-31T02:25:57;25.02;;;12.98;;
62584;SDS011;48643;51.670;5.808;2023-10-31T02:28:24;24.23;;;12.65;;
62584;SDS011;48643;51.670;5.808;2023-10-31T02:30:54;29.88;;;13.77;;
62584;SDS011;48643;51.670;5.808;2023-10-31T02:33:21;33.58;;;14.35;;
62584;SDS011;48643;51.670;5.808;2023-10-31T02:35:48;30.52;;;14.00;;
62584;SDS011;48643;51.670;5.808;2023-10-31T02:38:15;33.67;;;15.70;;
62584;SDS011;48643;51.670;5.808;2023-10-31T02:40:42;29.10;;;15.20;;
62584;SDS011;48643;51.670;5.808;2023-10-31T02:43:09;30.92;;;15.65;;
62584;SDS011;48643;51.670;5.808;2023-10-31T02:45:36;35.50;;;16.30;;
62584;SDS011;48643;51.670;5.808;2023-10-31T02:48:03;37.63;;;17.55;;
62584;SDS011;48643;51.670;5.808;2023-10-31T02:50:30;35.28;;;16.77;;
62584;SDS011;48643;51.670;5.808;2023-10-31T02:52:57;30.15;;;16.80;;
62584;SDS011;48643;51.670;5.808;2023-10-31T02:55:24;37.28;;;18.25;;
62584;SDS011;48643;51.670;5.808;2023-10-31T02:57:52;34.72;;;18.88;;
62584;SDS011;48643;51.670;5.808;2023-10-31T03:00:19;33.10;;;17.90;;
62584;SDS011;48643;51.670;5.808;2023-10-31T03:02:46;35.75;;;18.48;;
62584;SDS011;48643;51.670;5.808;2023-10-31T03:05:13;40.33;;;19.92;;
62584;SDS011;48643;51.670;5.808;2023-10-31T03:07:40;40.47;;;20.02;;
62584;SDS011;48643;51.670;5.808;2023-10-31T03:10:07;43.15;;;20.75;;
62584;SDS011;48643;51.670;5.808;2023-10-31T03:12:34;41.30;;;20.33;;
62584;SDS011;48643;51.670;5.808;2023-10-31T03:15:02;46.15;;;21.30;;
62584;SDS011;48643;51.670;5.808;2023-10-31T03:17:30;46.13;;;22.00;;
62584;SDS011;48643;51.670;5.808;2023-10-31T03:19:57;47.83;;;21.38;;
62584;SDS011;48643;51.670;5.808;2023-10-31T03:22:24;43.10;;;20.98;;
62584;SDS011;48643;51.670;5.808;2023-10-31T03:24:51;41.30;;;20.40;;
62584;SDS011;48643;51.670;5.808;2023-10-31T03:27:18;45.50;;;22.15;;
62584;SDS011;48643;51.670;5.808;2023-10-31T03:29:45;53.15;;;22.83;;
62584;SDS011;48643;51.670;5.808;2023-10-31T03:32:14;48.60;;;23.33;;
62584;SDS011;48643;51.670;5.808;2023-10-31T03:34:41;46.33;;;23.20;;
62584;SDS011;48643;51.670;5.808;2023-10-31T03:37:08;51.60;;;23.67;;
62584;SDS011;48643;51.670;5.808;2023-10-31T03:39:35;50.75;;;24.25;;
62584;SDS011;48643;51.670;5.808;2023-10-31T03:42:02;50.35;;;24.17;;
62584;SDS011;48643;51.670;5.808;2023-10-31T03:44:29;48.17;;;22.30;;
62584;SDS011;48643;51.670;5.808;2023-10-31T03:46:57;46.83;;;22.58;;
62584;SDS011;48643;51.670;5.808;2023-10-31T03:49:24;46.13;;;21.60;;
62584;SDS011;48643;51.670;5.808;2023-10-31T03:51:51;46.08;;;22.65;;
62584;SDS011;48643;51.670;5.808;2023-10-31T03:54:18;50.45;;;22.13;;
62584;SDS011;48643;51.670;5.808;2023-10-31T03:56:45;49.42;;;22.65;;
62584;SDS011;48643;51.670;5.808;2023-10-31T03:59:11;51.38;;;23.77;;
62584;SDS011;48643;51.670;5.808;2023-10-31T04:01:38;50.80;;;22.65;;
62584;SDS011;48643;51.670;5.808;2023-10-31T04:04:07;52.70;;;23.33;;
62584;SDS011;48643;51.670;5.808;2023-10-31T04:06:33;48.38;;;22.95;;
62584;SDS011;48643;51.670;5.808;2023-10-31T04:09:00;47.20;;;21.73;;
62584;SDS011;48643;51.670;5.808;2023-10-31T04:11:27;44.55;;;21.48;;
62584;SDS011;48643;51.670;5.808;2023-10-31T04:13:54;49.10;;;22.15;;
62584;SDS011;48643;51.670;5.808;2023-10-31T04:16:21;44.13;;;21.48;;
62584;SDS011;48643;51.670;5.808;2023-10-31T04:18:48;45.92;;;21.95;;
62584;SDS011;48643;51.670;5.808;2023-10-31T04:21:15;50.20;;;22.70;;
62584;SDS011;48643;51.670;5.808;2023-10-31T04:23:42;45.63;;;21.08;;
62584;SDS011;48643;51.670;5.808;2023-10-31T04:26:09;47.63;;;21.98;;
62584;SDS011;48643;51.670;5.808;2023-10-31T04:28:36;48.17;;;21.77;;
62584;SDS011;48643;51.670;5.808;2023-10-31T04:31:03;43.97;;;21.17;;
62584;SDS011;48643;51.670;5.808;2023-10-31T04:33:31;40.80;;;20.77;;
62584;SDS011;48643;51.670;5.808;2023-10-31T04:35:57;46.90;;;21.73;;
62584;SDS011;48643;51.670;5.808;2023-10-31T04:38:24;41.42;;;21.20;;
62584;SDS011;48643;51.670;5.808;2023-10-31T04:40:51;45.03;;;21.60;;
62584;SDS011;48643;51.670;5.808;2023-10-31T04:43:18;45.08;;;22.58;;
62584;SDS011;48643;51.670;5.808;2023-10-31T04:45:45;46.80;;;22.25;;
62584;SDS011;48643;51.670;5.808;2023-10-31T04:48:13;39.30;;;20.73;;
62584;SDS011;48643;51.670;5.808;2023-10-31T04:50:40;51.75;;;22.52;;
62584;SDS011;48643;51.670;5.808;2023-10-31T04:53:07;46.47;;;22.02;;
62584;SDS011;48643;51.670;5.808;2023-10-31T04:55:34;42.28;;;22.17;;
62584;SDS011;48643;51.670;5.808;2023-10-31T04:58:01;42.83;;;22.10;;
62584;SDS011;48643;51.670;5.808;2023-10-31T05:00:28;43.25;;;21.10;;
62584;SDS011;48643;51.670;5.808;2023-10-31T05:02:55;42.03;;;21.20;;
62584;SDS011;48643;51.670;5.808;2023-10-31T05:05:23;42.78;;;21.63;;
62584;SDS011;48643;51.670;5.808;2023-10-31T05:07:50;47.35;;;22.20;;
62584;SDS011;48643;51.670;5.808;2023-10-31T05:10:17;42.90;;;23.02;;
62584;SDS011;48643;51.670;5.808;2023-10-31T05:12:44;47.45;;;23.92;;
62584;SDS011;48643;51.670;5.808;2023-10-31T05:15:11;44.25;;;23.55;;
62584;SDS011;48643;51.670;5.808;2023-10-31T05:17:38;45.08;;;23.65;;
62584;SDS011;48643;51.670;5.808;2023-10-31T05:20:05;48.63;;;23.40;;
62584;SDS011;48643;51.670;5.808;2023-10-31T05:22:32;46.72;;;24.10;;
62584;SDS011;48643;51.670;5.808;2023-10-31T05:24:59;54.30;;;24.75;;
62584;SDS011;48643;51.670;5.808;2023-10-31T05:27:26;46.08;;;23.60;;
62584;SDS011;48643;51.670;5.808;2023-10-31T05:29:54;48.92;;;24.02;;
62584;SDS011;48643;51.670;5.808;2023-10-31T05:32:21;48.20;;;23.98;;
62584;SDS011;48643;51.670;5.808;2023-10-31T05:34:48;47.35;;;23.60;;
62584;SDS011;48643;51.670;5.808;2023-10-31T05:37:15;44.90;;;22.73;;
62584;SDS011;48643;51.670;5.808;2023-10-31T05:39:42;45.13;;;23.60;;
62584;SDS011;48643;51.670;5.808;2023-10-31T05:42:09;46.15;;;22.92;;
62584;SDS011;48643;51.670;5.808;2023-10-31T05:44:36;46.63;;;23.52;;
62584;SDS011;48643;51.670;5.808;2023-10-31T05:47:03;47.72;;;22.80;;
62584;SDS011;48643;51.670;5.808;2023-10-31T05:49:30;44.53;;;21.30;;
62584;SDS011;48643;51.670;5.808;2023-10-31T05:51:57;41.17;;;20.65;;
62584;SDS011;48643;51.670;5.808;2023-10-31T05:54:24;40.65;;;20.70;;
62584;SDS011;48643;51.670;5.808;2023-10-31T05:56:52;43.17;;;20.65;;
62584;SDS011;48643;51.670;5.808;2023-10-31T05:59:19;39.60;;;19.75;;
62584;SDS011;48643;51.670;5.808;2023-10-31T06:01:47;39.47;;;19.83;;
62584;SDS011;48643;51.670;5.808;2023-10-31T06:04:15;41.88;;;20.50;;
62584;SDS011;48643;51.670;5.808;2023-10-31T06:06:42;39.45;;;20.65;;
62584;SDS011;48643;51.670;5.808;2023-10-31T06:09:09;42.13;;;20.65;;
62584;SDS011;48643;51.670;5.808;2023-10-31T06:11:39;41.97;;;21.15;;
62584;SDS011;48643;51.670;5.808;2023-10-31T06:14:10;41.60;;;19.90;;
62584;SDS011;48643;51.670;5.808;2023-10-31T06:16:41;42.78;;;20.15;;
62584;SDS011;48643;51.670;5.808;2023-10-31T06:19:08;41.35;;;20.02;;
62584;SDS011;48643;51.670;5.808;2023-10-31T06:21:35;40.03;;;20.33;;
62584;SDS011;48643;51.670;5.808;2023-10-31T06:24:03;39.25;;;20.45;;
62584;SDS011;48643;51.670;5.808;2023-10-31T06:26:30;41.03;;;20.02;;
62584;SDS011;48643;51.670;5.808;2023-10-31T06:28:57;36.58;;;19.20;;
62584;SDS011;48643;51.670;5.808;2023-10-31T06:31:44;35.85;;;19.92;;
62584;SDS011;48643;51.670;5.808;2023-10-31T06:34:11;35.13;;;19.10;;
62584;SDS011;48643;51.670;5.808;2023-10-31T06:36:38;38.55;;;19.95;;
62584;SDS011;48643;51.670;5.808;2023-10-31T06:39:05;37.45;;;20.10;;
62584;SDS011;48643;51.670;5.808;2023-10-31T06:41:32;36.75;;;19.85;;
62584;SDS011;48643;51.670;5.808;2023-10-31T06:43:59;37.60;;;20.63;;
62584;SDS011;48643;51.670;5.808;2023-10-31T06:46:26;37.80;;;20.38;;
62584;SDS011;48643;51.670;5.808;2023-10-31T06:48:53;36.03;;;20.42;;
62584;SDS011;48643;51.670;5.808;2023-10-31T06:51:20;36.83;;;21.00;;
62584;SDS011;48643;51.670;5.808;2023-10-31T06:53:47;34.35;;;20.40;;
62584;SDS011;48643;51.670;5.808;2023-10-31T06:56:14;36.78;;;20.50;;
62584;SDS011;48643;51.670;5.808;2023-10-31T06:58:41;36.22;;;20.40;;
62584;SDS011;48643;51.670;5.808;2023-10-31T07:01:08;37.03;;;19.15;;
62584;SDS011;48643;51.670;5.808;2023-10-31T07:03:35;32.42;;;18.33;;
62584;SDS011;48643;51.670;5.808;2023-10-31T07:06:02;36.22;;;19.63;;
62584;SDS011;48643;51.670;5.808;2023-10-31T07:08:29;34.20;;;18.33;;
62584;SDS011;48643;51.670;5.808;2023-10-31T07:10:56;29.73;;;17.65;;
62584;SDS011;48643;51.670;5.808;2023-10-31T07:13:26;29.77;;;16.67;;
62584;SDS011;48643;51.670;5.808;2023-10-31T07:15:53;30.55;;;17.10;;
62584;SDS011;48643;51.670;5.808;2023-10-31T07:18:21;32.33;;;16.55;;
62584;SDS011;48643;51.670;5.808;2023-10-31T07:20:47;26.55;;;16.17;;
62584;SDS011;48643;51.670;5.808;2023-10-31T07:23:14;25.98;;;16.27;;
62584;SDS011;48643;51.670;5.808;2023-10-31T07:25:41;27.73;;;16.85;;
62584;SDS011;48643;51.670;5.808;2023-10-31T07:28:10;25.13;;;15.63;;
62584;SDS011;48643;51.670;5.808;2023-10-31T07:30:36;24.17;;;15.38;;
62584;SDS011;48643;51.670;5.808;2023-10-31T07:33:03;28.92;;;16.15;;
62584;SDS011;48643;51.670;5.808;2023-10-31T07:35:31;27.58;;;16.13;;
62584;SDS011;48643;51.670;5.808;2023-10-31T07:37:58;25.77;;;15.85;;
62584;SDS011;48643;51.670;5.808;2023-10-31T07:40:25;27.98;;;17.13;;
62584;SDS011;48643;51.670;5.808;2023-10-31T07:42:52;26.02;;;16.52;;
62584;SDS011;48643;51.670;5.808;2023-10-31T07:45:19;28.77;;;17.85;;
62584;SDS011;48643;51.670;5.808;2023-10-31T07:47:46;29.65;;;18.52;;
62584;SDS011;48643;51.670;5.808;2023-10-31T07:50:13;30.75;;;18.75;;
62584;SDS011;48643;51.670;5.808;2023-10-31T07:52:40;27.77;;;17.38;;
62584;SDS011;48643;51.670;5.808;2023-10-31T07:55:10;29.63;;;18.35;;
62584;SDS011;48643;51.670;5.808;2023-10-31T07:57:40;31.77;;;18.83;;
62584;SDS011;48643;51.670;5.808;2023-10-31T08:00:11;31.00;;;17.95;;
62584;SDS011;48643;51.670;5.808;2023-10-31T08:02:38;27.33;;;17.20;;
62584;SDS011;48643;51.670;5.808;2023-10-31T08:05:06;26.08;;;16.88;;
62584;SDS011;48643;51.670;5.808;2023-10-31T08:07:34;27.17;;;17.05;;
62584;SDS011;48643;51.670;5.808;2023-10-31T08:10:01;27.25;;;17.05;;
62584;SDS011;48643;51.670;5.808;2023-10-31T08:12:30;26.83;;;16.80;;
62584;SDS011;48643;51.670;5.808;2023-10-31T08:14:57;25.88;;;15.98;;
62584;SDS011;48643;51.670;5.808;2023-10-31T08:17:25;26.05;;;16.90;;
62584;SDS011;48643;51.670;5.808;2023-10-31T08:19:52;26.83;;;16.27;;
62584;SDS011;48643;51.670;5.808;2023-10-31T08:22:19;26.95;;;16.80;;
62584;SDS011;48643;51.670;5.808;2023-10-31T08:24:46;28.98;;;17.13;;
62584;SDS011;48643;51.670;5.808;2023-10-31T08:27:13;25.77;;;16.75;;
62584;SDS011;48643;51.670;5.808;2023-10-31T08:29:40;26.95;;;16.90;;
62584;SDS011;48643;51.670;5.808;2023-10-31T08:32:07;25.20;;;15.93;;
62584;SDS011;48643;51.670;5.808;2023-10-31T08:34:34;23.20;;;15.45;;
62584;SDS011;48643;51.670;5.808;2023-10-31T08:37:01;26.90;;;15.48;;
62584;SDS011;48643;51.670;5.808;2023-10-31T08:39:28;29.33;;;16.40;;
62584;SDS011;48643;51.670;5.808;2023-10-31T08:41:57;27.58;;;16.73;;
62584;SDS011;48643;51.670;5.808;2023-10-31T08:44:24;25.98;;;16.92;;
62584;SDS011;48643;51.670;5.808;2023-10-31T08:46:52;29.63;;;17.15;;
62584;SDS011;48643;51.670;5.808;2023-10-31T08:49:19;31.65;;;17.98;;
62584;SDS011;48643;51.670;5.808;2023-10-31T08:51:46;28.20;;;17.15;;
62584;SDS011;48643;51.670;5.808;2023-10-31T08:54:13;25.10;;;18.17;;
62584;SDS011;48643;51.670;5.808;2023-10-31T08:56:40;26.42;;;17.08;;
62584;SDS011;48643;51.670;5.808;2023-10-31T08:59:07;26.75;;;17.70;;
62584;SDS011;48643;51.670;5.808;2023-10-31T09:01:34;27.45;;;17.63;;
62584;SDS011;48643;51.670;5.808;2023-10-31T09:04:01;24.52;;;17.23;;
62584;SDS011;48643;51.670;5.808;2023-10-31T09:06:28;26.17;;;18.17;;
62584;SDS011;48643;51.670;5.808;2023-10-31T09:08:55;27.65;;;18.00;;
62584;SDS011;48643;51.670;5.808;2023-10-31T09:11:22;31.80;;;17.92;;
62584;SDS011;48643;51.670;5.808;2023-10-31T09:13:49;31.00;;;18.75;;
62584;SDS011;48643;51.670;5.808;2023-10-31T09:16:16;31.65;;;19.08;;
62584;SDS011;48643;51.670;5.808;2023-10-31T09:18:43;29.27;;;18.75;;
62584;SDS011;48643;51.670;5.808;2023-10-31T09:21:10;31.45;;;18.75;;
62584;SDS011;48643;51.670;5.808;2023-10-31T09:23:37;31.58;;;18.83;;
62584;SDS011;48643;51.670;5.808;2023-10-31T09:26:04;32.03;;;19.48;;
62584;SDS011;48643;51.670;5.808;2023-10-31T09:28:31;31.92;;;19.35;;
62584;SDS011;48643;51.670;5.808;2023-10-31T09:30:58;28.75;;;18.38;;
62584;SDS011;48643;51.670;5.808;2023-10-31T09:33:27;30.38;;;18.98;;
62584;SDS011;48643;51.670;5.808;2023-10-31T09:35:54;31.00;;;19.52;;
62584;SDS011;48643;51.670;5.808;2023-10-31T09:38:21;29.92;;;18.83;;
62584;SDS011;48643;51.670;5.808;2023-10-31T09:40:48;36.45;;;19.00;;
62584;SDS011;48643;51.670;5.808;2023-10-31T09:43:16;29.40;;;17.27;;
62584;SDS011;48643;51.670;5.808;2023-10-31T09:45:43;31.58;;;17.40;;
62584;SDS011;48643;51.670;5.808;2023-10-31T09:48:11;30.03;;;17.97;;
62584;SDS011;48643;51.670;5.808;2023-10-31T09:50:39;32.38;;;17.67;;
62584;SDS011;48643;51.670;5.808;2023-10-31T09:53:07;30.80;;;18.00;;
62584;SDS011;48643;51.670;5.808;2023-10-31T09:55:35;28.25;;;16.80;;
62584;SDS011;48643;51.670;5.808;2023-10-31T09:58:02;30.80;;;17.00;;
62584;SDS011;48643;51.670;5.808;2023-10-31T10:00:29;33.22;;;17.25;;
62584;SDS011;48643;51.670;5.808;2023-10-31T10:02:56;31.85;;;16.27;;
62584;SDS011;48643;51.670;5.808;2023-10-31T10:05:23;33.25;;;17.10;;
62584;SDS011;48643;51.670;5.808;2023-10-31T10:07:54;29.63;;;16.73;;
62584;SDS011;48643;51.670;5.808;2023-10-31T10:10:22;30.60;;;16.55;;
62584;SDS011;48643;51.670;5.808;2023-10-31T10:12:51;32.42;;;15.88;;
62584;SDS011;48643;51.670;5.808;2023-10-31T10:15:18;30.20;;;15.43;;
62584;SDS011;48643;51.670;5.808;2023-10-31T10:17:49;26.95;;;15.38;;
62584;SDS011;48643;51.670;5.808;2023-10-31T10:20:19;37.25;;;15.27;;
62584;SDS011;48643;51.670;5.808;2023-10-31T10:22:47;31.98;;;15.15;;
62584;SDS011;48643;51.670;5.808;2023-10-31T10:25:15;26.60;;;15.57;;
62584;SDS011;48643;51.670;5.808;2023-10-31T10:27:44;27.33;;;14.77;;
62584;SDS011;48643;51.670;5.808;2023-10-31T10:30:12;27.27;;;14.57;;
62584;SDS011;48643;51.670;5.808;2023-10-31T10:32:40;30.95;;;14.60;;
62584;SDS011;48643;51.670;5.808;2023-10-31T10:35:07;28.85;;;15.25;;
62584;SDS011;48643;51.670;5.808;2023-10-31T10:37:36;27.58;;;15.50;;
62584;SDS011;48643;51.670;5.808;2023-10-31T10:40:05;28.00;;;13.57;;
62584;SDS011;48643;51.670;5.808;2023-10-31T10:42:45;28.75;;;14.50;;
62584;SDS011;48643;51.670;5.808;2023-10-31T10:45:15;26.20;;;13.88;;
62584;SDS011;48643;51.670;5.808;2023-10-31T10:47:46;28.50;;;14.43;;
62584;SDS011;48643;51.670;5.808;2023-10-31T10:50:14;25.33;;;13.82;;
62584;SDS011;48643;51.670;5.808;2023-10-31T10:52:48;29.13;;;14.93;;
62584;SDS011;48643;51.670;5.808;2023-10-31T10:55:20;29.15;;;14.52;;
62584;SDS011;48643;51.670;5.808;2023-10-31T10:58:01;26.92;;;14.00;;
62584;SDS011;48643;51.670;5.808;2023-10-31T11:00:31;32.55;;;15.52;;
62584;SDS011;48643;51.670;5.808;2023-10-31T11:02:58;28.08;;;15.35;;
62584;SDS011;48643;51.670;5.808;2023-10-31T11:05:26;26.58;;;14.90;;
62584;SDS011;48643;51.670;5.808;2023-10-31T11:07:53;29.23;;;15.07;;
62584;SDS011;48643;51.670;5.808;2023-10-31T11:10:23;26.95;;;14.02;;
62584;SDS011;48643;51.670;5.808;2023-10-31T11:12:50;23.90;;;13.65;;
62584;SDS011;48643;51.670;5.808;2023-10-31T11:15:17;24.35;;;14.35;;
62584;SDS011;48643;51.670;5.808;2023-10-31T11:17:45;32.70;;;14.80;;
62584;SDS011;48643;51.670;5.808;2023-10-31T11:20:13;27.90;;;13.65;;
62584;SDS011;48643;51.670;5.808;2023-10-31T11:22:42;28.30;;;13.57;;
62584;SDS011;48643;51.670;5.808;2023-10-31T11:25:14;21.65;;;12.95;;
62584;SDS011;48643;51.670;5.808;2023-10-31T11:27:57;21.95;;;11.98;;
62584;SDS011;48643;51.670;5.808;2023-10-31T11:30:37;20.42;;;12.10;;
62584;SDS011;48643;51.670;5.808;2023-10-31T11:33:04;24.42;;;12.63;;
62584;SDS011;48643;51.670;5.808;2023-10-31T11:35:35;27.73;;;12.73;;
62584;SDS011;48643;51.670;5.808;2023-10-31T11:38:07;19.38;;;11.65;;
62584;SDS011;48643;51.670;5.808;2023-10-31T11:40:35;22.58;;;11.75;;
62584;SDS011;48643;51.670;5.808;2023-10-31T11:43:23;23.42;;;11.45;;
62584;SDS011;48643;51.670;5.808;2023-10-31T11:45:50;19.00;;;11.57;;
62584;SDS011;48643;51.670;5.808;2023-10-31T11:48:18;19.05;;;10.35;;
62584;SDS011;48643;51.670;5.808;2023-10-31T11:51:12;17.35;;;10.52;;
62584;SDS011;48643;51.670;5.808;2023-10-31T11:53:40;20.75;;;11.82;;
62584;SDS011;48643;51.670;5.808;2023-10-31T11:56:17;18.52;;;10.63;;
62584;SDS011;48643;51.670;5.808;2023-10-31T11:58:54;18.85;;;10.70;;
62584;SDS011;48643;51.670;5.808;2023-10-31T12:01:22;21.52;;;11.15;;
62584;SDS011;48643;51.670;5.808;2023-10-31T12:03:49;18.30;;;10.23;;
62584;SDS011;48643;51.670;5.808;2023-10-31T12:06:18;19.87;;;10.87;;
62584;SDS011;48643;51.670;5.808;2023-10-31T12:08:47;19.77;;;11.25;;
62584;SDS011;48643;51.670;5.808;2023-10-31T12:11:18;21.38;;;10.90;;
62584;SDS011;48643;51.670;5.808;2023-10-31T12:13:58;21.25;;;11.32;;
62584;SDS011;48643;51.670;5.808;2023-10-31T12:18:55;18.80;;;10.20;;
62584;SDS011;48643;51.670;5.808;2023-10-31T12:24:07;17.33;;;9.80;;
62584;SDS011;48643;51.670;5.808;2023-10-31T12:26:36;18.58;;;10.77;;
62584;SDS011;48643;51.670;5.808;2023-10-31T12:29:10;21.35;;;11.15;;
62584;SDS011;48643;51.670;5.808;2023-10-31T12:31:44;17.98;;;10.00;;
62584;SDS011;48643;51.670;5.808;2023-10-31T12:34:20;18.38;;;9.70;;
62584;SDS011;48643;51.670;5.808;2023-10-31T12:36:49;18.63;;;10.40;;
62584;SDS011;48643;51.670;5.808;2023-10-31T12:39:18;19.30;;;10.32;;
62584;SDS011;48643;51.670;5.808;2023-10-31T12:41:48;16.65;;;10.05;;
62584;SDS011;48643;51.670;5.808;2023-10-31T12:44:17;17.98;;;9.88;;
62584;SDS011;48643;51.670;5.808;2023-10-31T12:46:49;13.93;;;9.13;;
62584;SDS011;48643;51.670;5.808;2023-10-31T12:49:17;21.25;;;9.32;;
62584;SDS011;48643;51.670;5.808;2023-10-31T12:51:58;18.48;;;8.68;;
62584;SDS011;48643;51.670;5.808;2023-10-31T12:54:29;13.05;;;7.97;;
62584;SDS011;48643;51.670;5.808;2023-10-31T12:57:05;12.80;;;7.85;;
62584;SDS011;48643;51.670;5.808;2023-10-31T12:59:34;12.18;;;7.15;;
62584;SDS011;48643;51.670;5.808;2023-10-31T13:02:03;12.35;;;7.35;;
62584;SDS011;48643;51.670;5.808;2023-10-31T13:04:31;16.27;;;7.05;;
62584;SDS011;48643;51.670;5.808;2023-10-31T13:07:03;12.18;;;6.22;;
62584;SDS011;48643;51.670;5.808;2023-10-31T13:09:31;10.68;;;6.57;;
62584;SDS011;48643;51.670;5.808;2023-10-31T13:12:00;14.43;;;6.10;;
62584;SDS011;48643;51.670;5.808;2023-10-31T13:14:28;10.17;;;6.20;;
62584;SDS011;48643;51.670;5.808;2023-10-31T13:16:55;12.48;;;6.10;;
62584;SDS011;48643;51.670;5.808;2023-10-31T13:19:23;17.58;;;6.68;;
62584;SDS011;48643;51.670;5.808;2023-10-31T13:21:51;10.45;;;5.65;;
62584;SDS011;48643;51.670;5.808;2023-10-31T13:24:18;12.60;;;5.85;;
62584;SDS011;48643;51.670;5.808;2023-10-31T13:26:45;9.57;;;5.38;;
62584;SDS011;48643;51.670;5.808;2023-10-31T13:29:18;11.38;;;5.40;;
62584;SDS011;48643;51.670;5.808;2023-10-31T13:31:45;9.45;;;5.22;;
62584;SDS011;48643;51.670;5.808;2023-10-31T13:34:12;9.65;;;4.43;;
62584;SDS011;48643;51.670;5.808;2023-10-31T13:36:39;6.68;;;4.60;;
62584;SDS011;48643;51.670;5.808;2023-10-31T13:39:06;8.63;;;4.47;;
62584;SDS011;48643;51.670;5.808;2023-10-31T13:41:35;7.82;;;4.50;;
62584;SDS011;48643;51.670;5.808;2023-10-31T13:44:03;6.95;;;3.65;;
62584;SDS011;48643;51.670;5.808;2023-10-31T13:46:30;6.97;;;3.60;;
62584;SDS011;48643;51.670;5.808;2023-10-31T13:48:57;5.93;;;3.10;;
62584;SDS011;48643;51.670;5.808;2023-10-31T13:51:24;9.75;;;3.47;;
62584;SDS011;48643;51.670;5.808;2023-10-31T13:53:51;8.27;;;4.00;;
62584;SDS011;48643;51.670;5.808;2023-10-31T13:56:18;7.30;;;3.40;;
62584;SDS011;48643;51.670;5.808;2023-10-31T13:58:45;8.40;;;3.70;;
62584;SDS011;48643;51.670;5.808;2023-10-31T14:01:13;12.50;;;4.13;;
62584;SDS011;48643;51.670;5.808;2023-10-31T14:03:40;10.38;;;3.90;;
62584;SDS011;48643;51.670;5.808;2023-10-31T14:06:07;7.05;;;3.80;;
62584;SDS011;48643;51.670;5.808;2023-10-31T14:08:34;7.20;;;3.97;;
62584;SDS011;48643;51.670;5.808;2023-10-31T14:11:01;9.80;;;4.00;;
62584;SDS011;48643;51.670;5.808;2023-10-31T14:13:29;13.35;;;4.68;;
62584;SDS011;48643;51.670;5.808;2023-10-31T14:15:56;8.40;;;3.88;;
62584;SDS011;48643;51.670;5.808;2023-10-31T14:18:23;8.57;;;4.50;;
62584;SDS011;48643;51.670;5.808;2023-10-31T14:20:50;10.68;;;4.15;;
62584;SDS011;48643;51.670;5.808;2023-10-31T14:23:18;9.10;;;4.22;;
62584;SDS011;48643;51.670;5.808;2023-10-31T14:25:45;9.43;;;3.72;;
62584;SDS011;48643;51.670;5.808;2023-10-31T14:28:12;10.82;;;3.80;;
62584;SDS011;48643;51.670;5.808;2023-10-31T14:30:39;8.30;;;3.50;;
62584;SDS011;48643;51.670;5.808;2023-10-31T14:33:06;6.78;;;3.50;;
62584;SDS011;48643;51.670;5.808;2023-10-31T14:35:34;5.78;;;2.90;;